sensor_id;sensor_type;location;lat;lon;timestamp;pressure;altitude;pressure_sealevel;temperature;humidity
71465;BME280;59274;49.874;9.154;2023-08-24T00:00:45;100473.16;;;18.58;100.00
71465;BME280;59274;49.874;9.154;2023-08-24T00:03:10;100469.69;;;18.54;100.00
71465;BME280;59274;49.874;9.154;2023-08-24T00:05:36;100473.34;;;18.47;100.00
71465;BME280;59274;49.874;9.154;2023-08-24T00:08:09;100472.09;;;18.48;100.00
71465;BME280;59274;49.874;9.154;2023-08-24T00:10:36;100466.94;;;18.54;100.00
71465;BME280;59274;49.874;9.154;2023-08-24T00:13:03;100472.88;;;18.49;100.00
71465;BME280;59274;49.874;9.154;2023-08-24T00:15:29;100472.06;;;18.52;100.00
71465;BME280;59274;49.874;9.154;2023-08-24T00:17:55;100475.34;;;18.43;100.00
71465;BME280;59274;49.874;9.154;2023-08-24T00:20:20;100474.09;;;18.48;100.00
71465;BME280;59274;49.874;9.154;2023-08-24T00:22:46;100463.53;;;18.46;100.00
71465;BME280;59274;49.874;9.154;2023-08-24T00:25:12;100462.75;;;18.46;100.00
71465;BME280;59274;49.874;9.154;2023-08-24T00:27:38;100458.44;;;18.45;100.00
71465;BME280;59274;49.874;9.154;2023-08-24T00:30:05;100457.94;;;18.50;100.00
71465;BME280;59274;49.874;9.154;2023-08-24T00:32:34;100466.16;;;18.53;100.00
71465;BME280;59274;49.874;9.154;2023-08-24T00:35:04;100467.75;;;18.51;100.00
71465;BME280;59274;49.874;9.154;2023-08-24T00:37:31;100464.72;;;18.45;100.00
71465;BME280;59274;49.874;9.154;2023-08-24T00:39:59;100472.22;;;18.41;100.00
71465;BME280;59274;49.874;9.154;2023-08-24T00:42:24;100465.94;;;18.40;100.00
71465;BME280;59274;49.874;9.154;2023-08-24T00:44:49;100459.47;;;18.31;100.00
71465;BME280;59274;49.874;9.154;2023-08-24T00:47:16;100466.81;;;18.37;100.00
71465;BME280;59274;49.874;9.154;2023-08-24T00:49:42;100472.97;;;18.45;100.00
71465;BME280;59274;49.874;9.154;2023-08-24T00:52:07;100469.81;;;18.47;100.00
71465;BME280;59274;49.874;9.154;2023-08-24T00:54:33;100473.78;;;18.42;100.00
71465;BME280;59274;49.874;9.154;2023-08-24T00:56:59;100473.88;;;18.38;100.00
71465;BME280;59274;49.874;9.154;2023-08-24T00:59:25;100457.38;;;18.38;100.00
71465;BME280;59274;49.874;9.154;2023-08-24T01:01:51;100458.19;;;18.35;100.00
71465;BME280;59274;49.874;9.154;2023-08-24T01:04:17;100460.94;;;18.35;100.00
71465;BME280;59274;49.874;9.154;2023-08-24T01:06:43;100457.13;;;18.29;100.00
71465;BME280;59274;49.874;9.154;2023-08-24T01:09:08;100461.56;;;18.23;100.00
71465;BME280;59274;49.874;9.154;2023-08-24T01:14:18;100472.78;;;18.09;100.00
71465;BME280;59274;49.874;9.154;2023-08-24T01:16:47;100473.38;;;17.97;100.00
71465;BME280;59274;49.874;9.154;2023-08-24T01:19:37;100475.34;;;17.96;100.00
71465;BME280;59274;49.874;9.154;2023-08-24T01:22:08;100470.75;;;17.90;100.00
71465;BME280;59274;49.874;9.154;2023-08-24T01:24:47;100466.00;;;17.90;100.00
71465;BME280;59274;49.874;9.154;2023-08-24T01:27:20;100478.88;;;17.97;100.00
71465;BME280;59274;49.874;9.154;2023-08-24T01:29:46;100483.16;;;17.98;100.00
71465;BME280;59274;49.874;9.154;2023-08-24T01:32:12;100489.88;;;17.97;100.00
71465;BME280;59274;49.874;9.154;2023-08-24T01:34:38;100489.09;;;17.96;100.00
71465;BME280;59274;49.874;9.154;2023-08-24T01:37:06;100486.50;;;17.86;100.00
71465;BME280;59274;49.874;9.154;2023-08-24T01:39:45;100495.13;;;17.84;100.00
71465;BME280;59274;49.874;9.154;2023-08-24T01:42:17;100492.34;;;17.88;100.00
71465;BME280;59274;49.874;9.154;2023-08-24T01:44:47;100491.16;;;17.89;100.00
71465;BME280;59274;49.874;9.154;2023-08-24T01:47:15;100496.66;;;17.89;100.00
71465;BME280;59274;49.874;9.154;2023-08-24T01:49:43;100493.19;;;17.85;100.00
71465;BME280;59274;49.874;9.154;2023-08-24T01:52:09;100492.47;;;17.81;100.00
71465;BME280;59274;49.874;9.154;2023-08-24T01:54:35;100491.22;;;17.85;100.00
71465;BME280;59274;49.874;9.154;2023-08-24T01:57:04;100484.06;;;17.65;100.00
71465;BME280;59274;49.874;9.154;2023-08-24T01:59:30;100494.25;;;17.64;100.00
71465;BME280;59274;49.874;9.154;2023-08-24T02:01:55;100485.25;;;17.64;100.00
71465;BME280;59274;49.874;9.154;2023-08-24T02:04:21;100486.56;;;17.52;100.00
71465;BME280;59274;49.874;9.154;2023-08-24T02:06:46;100497.84;;;17.57;100.00
71465;BME280;59274;49.874;9.154;2023-08-24T02:09:12;100486.66;;;17.45;100.00
71465;BME280;59274;49.874;9.154;2023-08-24T02:11:37;100481.00;;;17.55;100.00
71465;BME280;59274;49.874;9.154;2023-08-24T02:14:03;100490.09;;;17.52;100.00
71465;BME280;59274;49.874;9.154;2023-08-24T02:16:29;100485.78;;;17.51;100.00
71465;BME280;59274;49.874;9.154;2023-08-24T02:18:55;100476.44;;;17.45;100.00
71465;BME280;59274;49.874;9.154;2023-08-24T02:21:20;100481.94;;;17.45;100.00
71465;BME280;59274;49.874;9.154;2023-08-24T02:23:46;100481.66;;;17.36;100.00
71465;BME280;59274;49.874;9.154;2023-08-24T02:26:12;100475.28;;;17.43;100.00
71465;BME280;59274;49.874;9.154;2023-08-24T02:28:38;100470.59;;;17.43;100.00
71465;BME280;59274;49.874;9.154;2023-08-24T02:31:04;100470.09;;;17.48;100.00
71465;BME280;59274;49.874;9.154;2023-08-24T02:33:30;100479.97;;;17.46;100.00
71465;BME280;59274;49.874;9.154;2023-08-24T02:35:56;100476.06;;;17.43;100.00
71465;BME280;59274;49.874;9.154;2023-08-24T02:38:23;100462.06;;;17.34;100.00
71465;BME280;59274;49.874;9.154;2023-08-24T02:40:49;100472.50;;;17.46;100.00
71465;BME280;59274;49.874;9.154;2023-08-24T02:43:14;100457.22;;;17.45;100.00
71465;BME280;59274;49.874;9.154;2023-08-24T02:45:39;100451.75;;;17.42;100.00
71465;BME280;59274;49.874;9.154;2023-08-24T02:48:05;100454.97;;;17.37;100.00
71465;BME280;59274;49.874;9.154;2023-08-24T02:50:31;100465.09;;;17.43;100.00
71465;BME280;59274;49.874;9.154;2023-08-24T02:52:56;100448.97;;;17.45;100.00
71465;BME280;59274;49.874;9.154;2023-08-24T02:55:24;100463.81;;;17.51;100.00
71465;BME280;59274;49.874;9.154;2023-08-24T02:57:49;100460.69;;;17.49;100.00
71465;BME280;59274;49.874;9.154;2023-08-24T03:00:15;100458.69;;;17.53;100.00
71465;BME280;59274;49.874;9.154;2023-08-24T03:02:40;100457.13;;;17.52;100.00
71465;BME280;59274;49.874;9.154;2023-08-24T03:05:06;100441.31;;;17.60;100.00
71465;BME280;59274;49.874;9.154;2023-08-24T03:07:32;100432.00;;;17.54;100.00
71465;BME280;59274;49.874;9.154;2023-08-24T03:09:57;100435.94;;;17.53;100.00
71465;BME280;59274;49.874;9.154;2023-08-24T03:12:22;100433.19;;;17.53;100.00
71465;BME280;59274;49.874;9.154;2023-08-24T03:14:51;100423.13;;;17.43;100.00
71465;BME280;59274;49.874;9.154;2023-08-24T03:17:17;100423.59;;;17.38;100.00
71465;BME280;59274;49.874;9.154;2023-08-24T03:19:43;100434.75;;;17.54;100.00
71465;BME280;59274;49.874;9.154;2023-08-24T03:22:08;100439.41;;;17.57;100.00
71465;BME280;59274;49.874;9.154;2023-08-24T03:24:33;100437.94;;;17.49;100.00
71465;BME280;59274;49.874;9.154;2023-08-24T03:26:59;100436.94;;;17.36;100.00
71465;BME280;59274;49.874;9.154;2023-08-24T03:29:24;100439.38;;;17.30;100.00
71465;BME280;59274;49.874;9.154;2023-08-24T03:31:50;100440.19;;;17.27;100.00
71465;BME280;59274;49.874;9.154;2023-08-24T03:34:15;100439.06;;;17.25;100.00
71465;BME280;59274;49.874;9.154;2023-08-24T03:36:41;100440.19;;;17.27;100.00
71465;BME280;59274;49.874;9.154;2023-08-24T03:39:07;100443.22;;;17.36;100.00
71465;BME280;59274;49.874;9.154;2023-08-24T03:41:32;100435.97;;;17.49;100.00
71465;BME280;59274;49.874;9.154;2023-08-24T03:43:59;100431.25;;;17.50;100.00
71465;BME280;59274;49.874;9.154;2023-08-24T03:46:24;100416.41;;;17.47;100.00
71465;BME280;59274;49.874;9.154;2023-08-24T03:48:50;100419.69;;;17.66;100.00
71465;BME280;59274;49.874;9.154;2023-08-24T03:51:15;100423.25;;;17.63;100.00
71465;BME280;59274;49.874;9.154;2023-08-24T03:53:41;100408.41;;;17.56;100.00
71465;BME280;59274;49.874;9.154;2023-08-24T03:56:06;100405.72;;;17.53;100.00
71465;BME280;59274;49.874;9.154;2023-08-24T03:58:31;100400.16;;;17.56;100.00
71465;BME280;59274;49.874;9.154;2023-08-24T04:00:57;100407.72;;;17.49;100.00
71465;BME280;59274;49.874;9.154;2023-08-24T04:03:22;100400.94;;;17.57;100.00
71465;BME280;59274;49.874;9.154;2023-08-24T04:05:48;100391.91;;;17.56;100.00
71465;BME280;59274;49.874;9.154;2023-08-24T04:08:13;100388.31;;;17.63;100.00
71465;BME280;59274;49.874;9.154;2023-08-24T04:10:39;100388.75;;;17.62;100.00
71465;BME280;59274;49.874;9.154;2023-08-24T04:13:04;100370.28;;;17.62;100.00
71465;BME280;59274;49.874;9.154;2023-08-24T04:15:29;100367.63;;;17.55;100.00
71465;BME280;59274;49.874;9.154;2023-08-24T04:17:55;100349.53;;;17.57;100.00
71465;BME280;59274;49.874;9.154;2023-08-24T04:20:22;100343.94;;;17.65;100.00
71465;BME280;59274;49.874;9.154;2023-08-24T04:22:47;100351.41;;;17.64;100.00
71465;BME280;59274;49.874;9.154;2023-08-24T04:25:13;100343.63;;;17.59;100.00
71465;BME280;59274;49.874;9.154;2023-08-24T04:27:38;100336.69;;;17.51;100.00
71465;BME280;59274;49.874;9.154;2023-08-24T04:30:04;100339.31;;;17.58;100.00
71465;BME280;59274;49.874;9.154;2023-08-24T04:32:32;100347.28;;;17.52;100.00
71465;BME280;59274;49.874;9.154;2023-08-24T04:34:57;100348.47;;;17.51;100.00
71465;BME280;59274;49.874;9.154;2023-08-24T04:37:23;100350.84;;;17.49;100.00
71465;BME280;59274;49.874;9.154;2023-08-24T04:39:48;100350.50;;;17.47;100.00
71465;BME280;59274;49.874;9.154;2023-08-24T04:42:14;100346.41;;;17.55;100.00
71465;BME280;59274;49.874;9.154;2023-08-24T04:44:40;100356.94;;;17.60;100.00
71465;BME280;59274;49.874;9.154;2023-08-24T04:47:06;100350.63;;;17.64;100.00
71465;BME280;59274;49.874;9.154;2023-08-24T04:49:32;100358.53;;;17.62;100.00
71465;BME280;59274;49.874;9.154;2023-08-24T04:51:57;100355.78;;;17.62;100.00
71465;BME280;59274;49.874;9.154;2023-08-24T04:54:23;100358.44;;;17.69;100.00
71465;BME280;59274;49.874;9.154;2023-08-24T04:56:48;100351.59;;;17.77;100.00
71465;BME280;59274;49.874;9.154;2023-08-24T04:59:13;100354.28;;;17.80;100.00
71465;BME280;59274;49.874;9.154;2023-08-24T05:01:39;100356.19;;;17.83;100.00
71465;BME280;59274;49.874;9.154;2023-08-24T05:04:04;100363.97;;;17.88;100.00
71465;BME280;59274;49.874;9.154;2023-08-24T05:06:30;100365.53;;;17.89;100.00
71465;BME280;59274;49.874;9.154;2023-08-24T05:08:55;100360.69;;;17.97;100.00
71465;BME280;59274;49.874;9.154;2023-08-24T05:11:23;100336.50;;;17.88;100.00
71465;BME280;59274;49.874;9.154;2023-08-24T05:13:52;100333.22;;;17.97;100.00
71465;BME280;59274;49.874;9.154;2023-08-24T05:16:17;100350.19;;;18.12;100.00
71465;BME280;59274;49.874;9.154;2023-08-24T05:18:43;100345.69;;;18.02;100.00
71465;BME280;59274;49.874;9.154;2023-08-24T05:21:08;100343.09;;;17.91;100.00
71465;BME280;59274;49.874;9.154;2023-08-24T05:23:34;100345.47;;;18.12;100.00
71465;BME280;59274;49.874;9.154;2023-08-24T05:26:01;100345.97;;;18.07;100.00
71465;BME280;59274;49.874;9.154;2023-08-24T05:28:28;100354.16;;;18.11;100.00
71465;BME280;59274;49.874;9.154;2023-08-24T05:30:54;100355.59;;;18.19;100.00
71465;BME280;59274;49.874;9.154;2023-08-24T05:33:21;100374.22;;;18.31;100.00
71465;BME280;59274;49.874;9.154;2023-08-24T05:35:47;100380.50;;;18.31;100.00
71465;BME280;59274;49.874;9.154;2023-08-24T05:38:13;100394.56;;;18.33;100.00
71465;BME280;59274;49.874;9.154;2023-08-24T05:40:39;100412.31;;;18.52;100.00
71465;BME280;59274;49.874;9.154;2023-08-24T05:43:08;100435.44;;;18.55;100.00
71465;BME280;59274;49.874;9.154;2023-08-24T05:45:33;100457.34;;;18.62;100.00
71465;BME280;59274;49.874;9.154;2023-08-24T05:47:59;100491.75;;;18.73;100.00
71465;BME280;59274;49.874;9.154;2023-08-24T05:50:24;100498.34;;;18.76;100.00
71465;BME280;59274;49.874;9.154;2023-08-24T05:52:50;100502.47;;;18.68;100.00
71465;BME280;59274;49.874;9.154;2023-08-24T05:55:15;100516.22;;;18.68;100.00
71465;BME280;59274;49.874;9.154;2023-08-24T05:57:41;100524.69;;;18.54;100.00
71465;BME280;59274;49.874;9.154;2023-08-24T06:00:07;100529.38;;;18.57;100.00
71465;BME280;59274;49.874;9.154;2023-08-24T06:02:39;100536.72;;;18.63;100.00
71465;BME280;59274;49.874;9.154;2023-08-24T06:05:05;100540.50;;;18.73;100.00
71465;BME280;59274;49.874;9.154;2023-08-24T06:07:32;100558.91;;;18.76;100.00
71465;BME280;59274;49.874;9.154;2023-08-24T06:09:57;100555.03;;;18.73;100.00
71465;BME280;59274;49.874;9.154;2023-08-24T06:12:23;100554.63;;;18.75;100.00
71465;BME280;59274;49.874;9.154;2023-08-24T06:14:48;100548.25;;;18.78;100.00
71465;BME280;59274;49.874;9.154;2023-08-24T06:17:17;100544.81;;;18.74;100.00
71465;BME280;59274;49.874;9.154;2023-08-24T06:19:42;100541.56;;;18.79;100.00
71465;BME280;59274;49.874;9.154;2023-08-24T06:22:08;100522.94;;;18.87;100.00
71465;BME280;59274;49.874;9.154;2023-08-24T06:24:34;100520.19;;;18.87;100.00
71465;BME280;59274;49.874;9.154;2023-08-24T06:27:00;100514.19;;;18.92;100.00
71465;BME280;59274;49.874;9.154;2023-08-24T06:29:28;100511.66;;;19.01;100.00
71465;BME280;59274;49.874;9.154;2023-08-24T06:31:54;100504.75;;;19.12;100.00
71465;BME280;59274;49.874;9.154;2023-08-24T06:34:20;100505.38;;;19.20;100.00
71465;BME280;59274;49.874;9.154;2023-08-24T06:36:45;100513.03;;;19.32;100.00
71465;BME280;59274;49.874;9.154;2023-08-24T06:39:11;100509.50;;;19.32;100.00
71465;BME280;59274;49.874;9.154;2023-08-24T06:41:36;100508.13;;;19.40;100.00
71465;BME280;59274;49.874;9.154;2023-08-24T06:44:02;100510.19;;;19.55;100.00
71465;BME280;59274;49.874;9.154;2023-08-24T06:46:29;100518.66;;;19.65;100.00
71465;BME280;59274;49.874;9.154;2023-08-24T06:48:54;100501.53;;;19.73;100.00
71465;BME280;59274;49.874;9.154;2023-08-24T06:51:19;100497.28;;;19.69;100.00
71465;BME280;59274;49.874;9.154;2023-08-24T06:53:45;100501.53;;;19.73;100.00
71465;BME280;59274;49.874;9.154;2023-08-24T06:56:13;100495.25;;;19.73;100.00
71465;BME280;59274;49.874;9.154;2023-08-24T06:58:39;100496.38;;;19.91;100.00
71465;BME280;59274;49.874;9.154;2023-08-24T07:01:04;100490.34;;;19.97;100.00
71465;BME280;59274;49.874;9.154;2023-08-24T07:03:32;100477.78;;;19.96;100.00
71465;BME280;59274;49.874;9.154;2023-08-24T07:05:59;100486.56;;;19.74;100.00
71465;BME280;59274;49.874;9.154;2023-08-24T07:08:24;100456.03;;;19.65;100.00
71465;BME280;59274;49.874;9.154;2023-08-24T07:10:50;100440.03;;;19.60;100.00
71465;BME280;59274;49.874;9.154;2023-08-24T07:13:15;100424.34;;;19.57;100.00
71465;BME280;59274;49.874;9.154;2023-08-24T07:15:42;100423.66;;;19.69;100.00
71465;BME280;59274;49.874;9.154;2023-08-24T07:18:07;100432.44;;;19.64;100.00
71465;BME280;59274;49.874;9.154;2023-08-24T07:20:34;100440.47;;;19.75;100.00
71465;BME280;59274;49.874;9.154;2023-08-24T07:23:00;100430.91;;;19.79;100.00
71465;BME280;59274;49.874;9.154;2023-08-24T07:25:25;100414.28;;;19.99;100.00
71465;BME280;59274;49.874;9.154;2023-08-24T07:27:53;100408.81;;;20.12;100.00
71465;BME280;59274;49.874;9.154;2023-08-24T07:30:23;100416.16;;;20.35;100.00
71465;BME280;59274;49.874;9.154;2023-08-24T07:32:49;100415.88;;;20.45;100.00
71465;BME280;59274;49.874;9.154;2023-08-24T07:35:14;100406.72;;;20.32;100.00
71465;BME280;59274;49.874;9.154;2023-08-24T07:37:39;100399.78;;;20.56;100.00
71465;BME280;59274;49.874;9.154;2023-08-24T07:40:05;100392.88;;;20.64;100.00
71465;BME280;59274;49.874;9.154;2023-08-24T07:42:43;100378.03;;;20.87;100.00
71465;BME280;59274;49.874;9.154;2023-08-24T07:45:08;100384.91;;;20.95;100.00
71465;BME280;59274;49.874;9.154;2023-08-24T07:47:34;100389.75;;;21.04;100.00
71465;BME280;59274;49.874;9.154;2023-08-24T07:49:59;100381.16;;;21.15;100.00
71465;BME280;59274;49.874;9.154;2023-08-24T07:52:25;100378.53;;;21.24;100.00
71465;BME280;59274;49.874;9.154;2023-08-24T07:54:52;100401.09;;;21.47;100.00
71465;BME280;59274;49.874;9.154;2023-08-24T07:57:18;100400.75;;;21.58;100.00
71465;BME280;59274;49.874;9.154;2023-08-24T07:59:43;100406.03;;;21.78;100.00
71465;BME280;59274;49.874;9.154;2023-08-24T08:02:08;100399.25;;;22.04;100.00
71465;BME280;59274;49.874;9.154;2023-08-24T08:04:34;100408.47;;;22.36;100.00
71465;BME280;59274;49.874;9.154;2023-08-24T08:07:00;100409.78;;;22.44;100.00
71465;BME280;59274;49.874;9.154;2023-08-24T08:09:25;100416.41;;;22.46;100.00
71465;BME280;59274;49.874;9.154;2023-08-24T08:11:51;100400.31;;;22.54;100.00
71465;BME280;59274;49.874;9.154;2023-08-24T08:14:17;100387.94;;;22.46;100.00
71465;BME280;59274;49.874;9.154;2023-08-24T08:16:42;100386.41;;;22.45;100.00
71465;BME280;59274;49.874;9.154;2023-08-24T08:19:11;100385.31;;;22.42;100.00
71465;BME280;59274;49.874;9.154;2023-08-24T08:21:36;100379.25;;;22.35;100.00
71465;BME280;59274;49.874;9.154;2023-08-24T08:24:02;100368.56;;;22.46;100.00
71465;BME280;59274;49.874;9.154;2023-08-24T08:26:28;100355.56;;;22.55;100.00
71465;BME280;59274;49.874;9.154;2023-08-24T08:28:54;100349.84;;;22.72;100.00
71465;BME280;59274;49.874;9.154;2023-08-24T08:31:19;100333.75;;;22.79;100.00
71465;BME280;59274;49.874;9.154;2023-08-24T08:33:45;100313.34;;;22.95;100.00
71465;BME280;59274;49.874;9.154;2023-08-24T08:36:10;100308.06;;;22.88;100.00
71465;BME280;59274;49.874;9.154;2023-08-24T08:38:36;100308.84;;;22.66;100.00
71465;BME280;59274;49.874;9.154;2023-08-24T08:41:03;100301.84;;;22.75;100.00
71465;BME280;59274;49.874;9.154;2023-08-24T08:43:30;100302.97;;;22.55;100.00
71465;BME280;59274;49.874;9.154;2023-08-24T08:45:56;100307.53;;;22.49;100.00
71465;BME280;59274;49.874;9.154;2023-08-24T08:48:22;100325.16;;;22.64;100.00
71465;BME280;59274;49.874;9.154;2023-08-24T08:50:49;100323.94;;;22.65;100.00
71465;BME280;59274;49.874;9.154;2023-08-24T08:53:15;100312.28;;;22.71;100.00
71465;BME280;59274;49.874;9.154;2023-08-24T08:55:41;100297.09;;;22.75;100.00
71465;BME280;59274;49.874;9.154;2023-08-24T08:58:07;100288.84;;;22.84;100.00
71465;BME280;59274;49.874;9.154;2023-08-24T09:00:34;100278.41;;;22.97;100.00
71465;BME280;59274;49.874;9.154;2023-08-24T09:03:00;100283.28;;;23.15;100.00
71465;BME280;59274;49.874;9.154;2023-08-24T09:05:26;100268.06;;;23.29;100.00
71465;BME280;59274;49.874;9.154;2023-08-24T09:07:54;100264.44;;;23.50;100.00
71465;BME280;59274;49.874;9.154;2023-08-24T09:10:20;100273.41;;;23.72;100.00
71465;BME280;59274;49.874;9.154;2023-08-24T09:12:46;100288.66;;;23.77;100.00
71465;BME280;59274;49.874;9.154;2023-08-24T09:15:12;100290.22;;;23.87;100.00
71465;BME280;59274;49.874;9.154;2023-08-24T09:17:43;100270.75;;;23.96;100.00
71465;BME280;59274;49.874;9.154;2023-08-24T09:20:09;100253.94;;;24.18;100.00
71465;BME280;59274;49.874;9.154;2023-08-24T09:22:36;100251.63;;;24.35;100.00
71465;BME280;59274;49.874;9.154;2023-08-24T09:25:02;100258.41;;;24.43;100.00
71465;BME280;59274;49.874;9.154;2023-08-24T09:27:29;100264.72;;;24.43;100.00
71465;BME280;59274;49.874;9.154;2023-08-24T09:29:55;100279.03;;;24.60;100.00
71465;BME280;59274;49.874;9.154;2023-08-24T09:32:24;100285.03;;;24.58;100.00
71465;BME280;59274;49.874;9.154;2023-08-24T09:34:52;100284.25;;;24.67;100.00
71465;BME280;59274;49.874;9.154;2023-08-24T09:37:18;100289.66;;;24.71;100.00
71465;BME280;59274;49.874;9.154;2023-08-24T09:39:45;100276.88;;;24.55;100.00
71465;BME280;59274;49.874;9.154;2023-08-24T09:42:11;100267.66;;;24.31;100.00
71465;BME280;59274;49.874;9.154;2023-08-24T09:44:36;100274.31;;;24.15;100.00
71465;BME280;59274;49.874;9.154;2023-08-24T09:47:02;100276.50;;;24.20;100.00
71465;BME280;59274;49.874;9.154;2023-08-24T09:49:28;100264.44;;;24.05;100.00
71465;BME280;59274;49.874;9.154;2023-08-24T09:51:57;100251.16;;;24.18;100.00
71465;BME280;59274;49.874;9.154;2023-08-24T09:54:26;100246.56;;;24.24;100.00
71465;BME280;59274;49.874;9.154;2023-08-24T09:56:54;100243.31;;;24.26;100.00
71465;BME280;59274;49.874;9.154;2023-08-24T09:59:22;100222.47;;;24.30;100.00
71465;BME280;59274;49.874;9.154;2023-08-24T10:01:50;100222.16;;;24.37;100.00
71465;BME280;59274;49.874;9.154;2023-08-24T10:04:28;100210.13;;;24.31;100.00
71465;BME280;59274;49.874;9.154;2023-08-24T10:07:20;100209.09;;;24.29;100.00
71465;BME280;59274;49.874;9.154;2023-08-24T10:09:58;100209.66;;;24.42;100.00
71465;BME280;59274;49.874;9.154;2023-08-24T10:12:28;100192.09;;;24.69;100.00
71465;BME280;59274;49.874;9.154;2023-08-24T10:15:00;100188.31;;;24.90;100.00
71465;BME280;59274;49.874;9.154;2023-08-24T10:17:32;100178.94;;;25.11;100.00
71465;BME280;59274;49.874;9.154;2023-08-24T10:19:58;100176.78;;;25.30;100.00
71465;BME280;59274;49.874;9.154;2023-08-24T10:22:31;100180.97;;;25.49;98.80
71465;BME280;59274;49.874;9.154;2023-08-24T10:24:57;100174.56;;;25.58;92.57
71465;BME280;59274;49.874;9.154;2023-08-24T10:27:23;100180.56;;;25.80;96.97
71465;BME280;59274;49.874;9.154;2023-08-24T10:29:51;100181.09;;;25.93;98.60
71465;BME280;59274;49.874;9.154;2023-08-24T10:32:17;100175.59;;;25.99;96.67
71465;BME280;59274;49.874;9.154;2023-08-24T10:34:43;100166.19;;;26.11;95.75
71465;BME280;59274;49.874;9.154;2023-08-24T10:37:09;100168.59;;;26.18;98.59
71465;BME280;59274;49.874;9.154;2023-08-24T10:39:45;100154.97;;;26.20;100.00
71465;BME280;59274;49.874;9.154;2023-08-24T10:42:12;100148.25;;;26.12;96.48
71465;BME280;59274;49.874;9.154;2023-08-24T10:44:39;100152.66;;;26.33;96.96
71465;BME280;59274;49.874;9.154;2023-08-24T10:49:38;100155.47;;;26.68;97.23
71465;BME280;59274;49.874;9.154;2023-08-24T10:52:19;100163.00;;;26.82;95.47
71465;BME280;59274;49.874;9.154;2023-08-24T10:54:49;100152.88;;;27.00;93.63
71465;BME280;59274;49.874;9.154;2023-08-24T10:57:23;100147.44;;;27.11;94.80
71465;BME280;59274;49.874;9.154;2023-08-24T11:02:51;100148.81;;;27.41;88.20
71465;BME280;59274;49.874;9.154;2023-08-24T11:07:54;100137.94;;;27.63;87.93
71465;BME280;59274;49.874;9.154;2023-08-24T11:10:24;100126.69;;;27.84;89.72
71465;BME280;59274;49.874;9.154;2023-08-24T11:15:43;100117.19;;;28.01;81.25
71465;BME280;59274;49.874;9.154;2023-08-24T11:18:29;100113.56;;;28.21;78.40
71465;BME280;59274;49.874;9.154;2023-08-24T11:20:56;100108.34;;;28.34;78.20
71465;BME280;59274;49.874;9.154;2023-08-24T11:23:23;100110.69;;;28.41;73.77
71465;BME280;59274;49.874;9.154;2023-08-24T11:25:51;100100.00;;;28.40;73.93
71465;BME280;59274;49.874;9.154;2023-08-24T11:28:20;100111.41;;;28.42;75.81
71465;BME280;59274;49.874;9.154;2023-08-24T11:30:47;100106.47;;;28.63;72.64
71465;BME280;59274;49.874;9.154;2023-08-24T11:33:13;100101.47;;;28.78;76.56
71465;BME280;59274;49.874;9.154;2023-08-24T11:35:43;100102.34;;;28.95;75.78
71465;BME280;59274;49.874;9.154;2023-08-24T11:38:09;100099.31;;;29.04;70.31
71465;BME280;59274;49.874;9.154;2023-08-24T11:40:35;100105.97;;;29.12;68.57
71465;BME280;59274;49.874;9.154;2023-08-24T11:43:01;100099.13;;;29.19;68.88
71465;BME280;59274;49.874;9.154;2023-08-24T11:45:35;100098.09;;;29.16;66.02
71465;BME280;59274;49.874;9.154;2023-08-24T11:48:02;100090.97;;;29.15;64.29
71465;BME280;59274;49.874;9.154;2023-08-24T11:50:30;100091.78;;;29.33;62.71
71465;BME280;59274;49.874;9.154;2023-08-24T11:52:56;100081.13;;;29.37;61.14
71465;BME280;59274;49.874;9.154;2023-08-24T11:55:22;100070.44;;;29.63;61.58
71465;BME280;59274;49.874;9.154;2023-08-24T11:57:49;100060.75;;;29.42;57.97
71465;BME280;59274;49.874;9.154;2023-08-24T12:00:14;100063.38;;;29.95;56.50
71465;BME280;59274;49.874;9.154;2023-08-24T12:02:45;100054.16;;;30.23;60.22
71465;BME280;59274;49.874;9.154;2023-08-24T12:05:22;100044.69;;;30.37;56.37
71465;BME280;59274;49.874;9.154;2023-08-24T12:07:48;100045.75;;;30.23;54.29
71465;BME280;59274;49.874;9.154;2023-08-24T12:10:13;100052.09;;;30.40;56.03
71465;BME280;59274;49.874;9.154;2023-08-24T12:12:39;100045.25;;;30.24;53.43
71465;BME280;59274;49.874;9.154;2023-08-24T12:15:05;100036.25;;;30.43;55.00
71465;BME280;59274;49.874;9.154;2023-08-24T12:17:44;100035.03;;;30.32;55.35
71465;BME280;59274;49.874;9.154;2023-08-24T12:20:18;100019.69;;;30.56;53.23
71465;BME280;59274;49.874;9.154;2023-08-24T12:22:44;100023.22;;;30.67;52.88
71465;BME280;59274;49.874;9.154;2023-08-24T12:25:09;100018.19;;;30.55;52.19
71465;BME280;59274;49.874;9.154;2023-08-24T12:27:35;100005.34;;;30.70;56.24
71465;BME280;59274;49.874;9.154;2023-08-24T12:30:01;99994.03;;;30.87;54.56
71465;BME280;59274;49.874;9.154;2023-08-24T12:32:41;99998.25;;;30.58;55.00
71465;BME280;59274;49.874;9.154;2023-08-24T12:35:07;99993.13;;;30.68;54.70
71465;BME280;59274;49.874;9.154;2023-08-24T12:37:35;99994.66;;;30.63;53.11
71465;BME280;59274;49.874;9.154;2023-08-24T12:40:02;99977.75;;;30.80;53.02
71465;BME280;59274;49.874;9.154;2023-08-24T12:42:27;99984.59;;;30.85;53.82
71465;BME280;59274;49.874;9.154;2023-08-24T12:44:53;99980.19;;;31.00;56.24
71465;BME280;59274;49.874;9.154;2023-08-24T12:47:18;99978.19;;;30.95;54.12
71465;BME280;59274;49.874;9.154;2023-08-24T12:49:46;99975.63;;;30.92;54.77
71465;BME280;59274;49.874;9.154;2023-08-24T12:52:11;99967.25;;;30.86;53.76
71465;BME280;59274;49.874;9.154;2023-08-24T12:54:37;99959.97;;;31.13;54.72